Time;durP1;ratioP1;P1;durP2;ratioP2;P2;SDS_P1;SDS_P2;PMS_P1;PMS_P2;Temp;Humidity;BMP_temperature;BMP_pressure;BME280_temperature;BME280_humidity;BME280_pressure;Samples;Min_cycle;Max_cycle;Signal;HPM_P1;HPM_P2
2022/06/08 00:02:01;;;;;;;0.10;0.10;;;12.20;99.90;;;;;;5045533;28;20449;-84
2022/06/08 00:04:26;;;;;;;0.10;0.10;;;12.20;99.90;;;;;;5053034;28;20810;-83
2022/06/08 00:06:53;;;;;;;0.20;0.20;;;12.10;99.90;;;;;;5050113;28;20197;-85
2022/06/08 00:09:18;;;;;;;0.20;0.20;;;12.00;99.90;;;;;;5047240;28;20253;-84
2022/06/08 00:11:45;;;;;;;0.20;0.20;;;12.00;99.90;;;;;;5050337;28;20928;-84
2022/06/08 00:14:12;;;;;;;0.20;0.20;;;12.00;99.90;;;;;;5058938;28;20249;-84
2022/06/08 00:16:37;;;;;;;0.20;0.20;;;12.00;99.90;;;;;;5052646;28;20445;-85
2022/06/08 00:19:03;;;;;;;0.20;0.20;;;12.10;99.90;;;;;;5049184;28;20452;-84
2022/06/08 00:21:28;;;;;;;0.10;0.10;;;12.00;99.90;;;;;;5054152;28;20211;-85
2022/06/08 00:23:55;;;;;;;0.20;0.20;;;12.00;99.90;;;;;;5064319;28;20588;-84
2022/06/08 00:26:20;;;;;;;0.10;0.10;;;12.00;99.90;;;;;;5051627;28;20199;-84
2022/06/08 00:28:46;;;;;;;0.17;0.17;;;12.00;99.90;;;;;;5060179;28;20436;-86
2022/06/08 00:31:11;;;;;;;0.20;0.20;;;12.00;99.90;;;;;;5051751;28;20677;-82
2022/06/08 00:33:37;;;;;;;0.20;0.20;;;12.00;99.90;;;;;;5054218;28;20245;-85
2022/06/08 00:36:03;;;;;;;0.20;0.20;;;12.00;99.90;;;;;;5050858;28;20244;-84
2022/06/08 00:38:28;;;;;;;0.20;0.20;;;12.00;99.90;;;;;;5055229;28;20189;-84
2022/06/08 00:41:20;;;;;;;0.20;0.20;;;12.00;99.90;;;;;;5049748;28;20511;-84
2022/06/08 00:43:45;;;;;;;0.20;0.20;;;12.00;99.90;;;;;;5048754;28;20547;-84
2022/06/08 00:46:12;;;;;;;0.20;0.20;;;12.10;99.90;;;;;;5067617;28;20463;-83
2022/06/08 00:48:43;;;;;;;0.17;0.17;;;12.00;99.90;;;;;;5055276;28;20202;-84
2022/06/08 00:51:09;;;;;;;0.20;0.20;;;12.00;99.90;;;;;;5056664;28;20478;-81
2022/06/08 00:53:51;;;;;;;0.20;0.20;;;12.10;99.90;;;;;;5062998;28;20591;-85
2022/06/08 00:56:22;;;;;;;0.17;0.17;;;12.10;99.90;;;;;;5060980;28;20449;-83
2022/06/08 00:58:48;;;;;;;0.10;0.10;;;12.10;99.90;;;;;;5052790;28;20503;-85
2022/06/08 01:01:14;;;;;;;0.10;0.10;;;12.10;99.90;;;;;;5051769;28;20457;-85
2022/06/08 01:03:40;;;;;;;0.10;0.10;;;12.10;99.90;;;;;;5049127;28;20515;-85
2022/06/08 01:06:19;;;;;;;0.10;0.10;;;12.10;99.90;;;;;;5052562;28;20449;-86
2022/06/08 01:08:48;;;;;;;0.10;0.10;;;12.10;99.90;;;;;;5055457;28;20491;-85
2022/06/08 01:11:38;;;;;;;0.10;0.10;;;12.10;99.90;;;;;;5056264;28;20469;-84
2022/06/08 01:14:08;;;;;;;0.10;0.10;;;12.20;99.90;;;;;;5058992;28;20444;-84
2022/06/08 01:16:34;;;;;;;0.10;0.10;;;12.20;99.90;;;;;;5051160;28;20499;-85
2022/06/08 01:19:01;;;;;;;0.20;0.20;;;12.20;99.90;;;;;;5056362;28;20488;-85
2022/06/08 01:21:27;;;;;;;0.10;0.10;;;12.20;99.90;;;;;;5050829;28;20183;-85
2022/06/08 01:24:05;;;;;;;0.10;0.10;;;12.20;99.90;;;;;;5055363;28;20527;-84
2022/06/08 01:26:49;;;;;;;0.20;0.20;;;12.20;99.90;;;;;;5051089;28;20177;-84
2022/06/08 01:29:36;;;;;;;0.10;0.10;;;12.20;99.90;;;;;;5056602;28;20958;-85
2022/06/08 01:32:26;;;;;;;0.10;0.10;;;12.20;99.90;;;;;;5047423;28;20465;-83
2022/06/08 01:35:10;;;;;;;0.10;0.10;;;12.20;99.90;;;;;;5043322;28;20467;-85
2022/06/08 01:37:45;;;;;;;0.10;0.10;;;12.20;99.90;;;;;;5050299;28;20460;-82
2022/06/08 01:40:38;;;;;;;0.20;0.20;;;12.20;99.90;;;;;;5049243;28;20444;-85
2022/06/08 01:43:14;;;;;;;0.20;0.20;;;12.20;99.90;;;;;;5053039;28;21306;-85
2022/06/08 01:46:00;;;;;;;0.10;0.10;;;12.30;99.90;;;;;;5048486;28;20444;-86
2022/06/08 01:48:31;;;;;;;0.10;0.10;;;12.30;99.90;;;;;;5048808;28;20445;-85
2022/06/08 01:51:30;;;;;;;0.10;0.10;;;12.30;99.90;;;;;;5053137;28;20490;-85
2022/06/08 01:54:02;;;;;;;0.20;0.20;;;12.30;99.90;;;;;;5050742;28;20485;-85
2022/06/08 01:56:35;;;;;;;0.10;0.10;;;12.20;99.90;;;;;;5067016;28;20433;-85
2022/06/08 01:59:26;;;;;;;0.10;0.10;;;12.20;99.90;;;;;;5045935;28;20445;-84
2022/06/08 02:02:17;;;;;;;0.20;0.20;;;12.30;99.90;;;;;;5065657;28;20488;-85
2022/06/08 02:04:59;;;;;;;0.10;0.10;;;12.30;99.90;;;;;;5044455;28;20544;-84
2022/06/08 02:07:40;;;;;;;0.10;0.10;;;12.20;99.90;;;;;;5047815;28;21100;-85
2022/06/08 02:10:09;;;;;;;0.10;0.10;;;12.20;99.90;;;;;;5051491;28;20551;-85
2022/06/08 02:12:41;;;;;;;0.20;0.20;;;12.20;99.90;;;;;;5053049;28;20908;-85
2022/06/08 02:15:17;;;;;;;0.20;0.20;;;12.20;99.90;;;;;;5052578;28;20465;-84
2022/06/08 02:17:50;;;;;;;0.10;0.10;;;12.20;99.90;;;;;;5049851;28;20451;-84
2022/06/08 02:20:22;;;;;;;0.20;0.20;;;12.20;99.90;;;;;;5045424;28;20477;-84
2022/06/08 02:22:53;;;;;;;0.20;0.20;;;12.20;99.90;;;;;;5051832;28;20449;-85
2022/06/08 02:25:28;;;;;;;0.10;0.10;;;12.20;99.90;;;;;;5047470;28;20477;-84
2022/06/08 02:28:16;;;;;;;0.10;0.10;;;12.10;99.90;;;;;;5062895;28;20443;-84
2022/06/08 02:30:48;;;;;;;0.20;0.20;;;12.10;99.90;;;;;;5045552;28;20805;-85
2022/06/08 02:36:17;;;;;;;0.10;0.10;;;12.10;99.90;;;;;;5050813;28;21010;-83
2022/06/08 02:38:49;;;;;;;0.20;0.20;;;12.00;99.90;;;;;;5046763;28;20845;-84
2022/06/08 02:41:16;;;;;;;0.10;0.10;;;12.00;99.90;;;;;;5058026;28;20461;-84
2022/06/08 02:43:56;;;;;;;0.10;0.10;;;12.00;99.90;;;;;;5062431;28;20581;-85
2022/06/08 02:46:41;;;;;;;0.40;0.40;;;12.00;99.90;;;;;;5042257;28;20452;-86
2022/06/08 02:49:09;;;;;;;0.30;0.30;;;12.00;99.90;;;;;;5050493;28;20464;-84
2022/06/08 02:51:35;;;;;;;0.20;0.20;;;12.00;99.90;;;;;;5048001;28;20449;-84
2022/06/08 02:54:07;;;;;;;0.20;0.20;;;12.00;99.90;;;;;;5051861;28;20517;-85
2022/06/08 02:56:58;;;;;;;0.20;0.20;;;12.00;99.90;;;;;;5040773;28;20441;-85
2022/06/08 02:59:37;;;;;;;0.30;0.30;;;12.00;99.90;;;;;;5057701;28;20655;-85
2022/06/08 03:02:32;;;;;;;0.20;0.20;;;12.00;99.90;;;;;;5051465;28;20464;-84
2022/06/08 03:05:37;;;;;;;0.27;0.27;;;12.00;99.90;;;;;;5051316;28;20478;-85
2022/06/08 03:08:10;;;;;;;0.20;0.20;;;12.10;99.90;;;;;;5036996;28;20436;-83
2022/06/08 03:10:41;;;;;;;0.60;0.60;;;12.10;99.90;;;;;;5048712;28;20526;-84
2022/06/08 03:13:09;;;;;;;0.20;0.20;;;12.10;99.90;;;;;;5055725;28;20484;-85
2022/06/08 03:15:37;;;;;;;0.33;0.33;;;12.10;99.90;;;;;;5051718;28;20456;-83
2022/06/08 03:18:02;;;;;;;0.40;0.40;;;12.10;99.90;;;;;;5051494;28;20543;-84
2022/06/08 03:20:28;;;;;;;0.30;0.30;;;12.10;99.90;;;;;;5045842;28;20527;-84
2022/06/08 03:22:54;;;;;;;0.20;0.20;;;12.10;99.90;;;;;;5047772;28;20182;-85
2022/06/08 03:25:21;;;;;;;0.30;0.30;;;12.10;99.90;;;;;;5040124;28;20183;-84
2022/06/08 03:27:48;;;;;;;0.53;0.53;;;12.10;99.90;;;;;;5059485;28;20206;-84
2022/06/08 03:30:14;;;;;;;0.40;0.40;;;12.10;99.90;;;;;;5048074;28;20433;-84
2022/06/08 03:32:41;;;;;;;0.20;0.20;;;12.10;99.90;;;;;;5051799;28;20516;-84
2022/06/08 03:35:07;;;;;;;0.20;0.20;;;12.10;99.90;;;;;;5044559;28;20477;-85
2022/06/08 03:37:33;;;;;;;0.20;0.20;;;12.10;99.90;;;;;;5052317;28;20513;-84
2022/06/08 03:39:58;;;;;;;0.50;0.50;;;12.10;99.90;;;;;;5045496;28;20453;-85
2022/06/08 03:42:24;;;;;;;0.20;0.20;;;12.20;99.90;;;;;;5046043;28;20281;-85
2022/06/08 03:44:51;;;;;;;0.20;0.20;;;12.20;99.90;;;;;;5051134;28;20183;-85
2022/06/08 03:47:23;;;;;;;0.37;0.37;;;12.20;99.90;;;;;;5049616;28;20665;-85
2022/06/08 03:49:51;;;;;;;0.20;0.20;;;12.20;99.90;;;;;;5056150;28;20535;-85
2022/06/08 03:52:26;;;;;;;0.10;0.10;;;12.30;99.90;;;;;;5059818;28;20479;-85
2022/06/08 03:54:57;;;;;;;0.20;0.20;;;12.30;99.90;;;;;;5060415;28;20529;-85
2022/06/08 03:57:24;;;;;;;0.10;0.10;;;12.30;99.90;;;;;;5054064;28;20479;-85
2022/06/08 03:59:49;;;;;;;0.20;0.20;;;12.30;99.90;;;;;;5049556;28;20447;-85
2022/06/08 04:02:16;;;;;;;0.10;0.10;;;12.40;99.90;;;;;;5053886;28;20449;-85
2022/06/08 04:04:41;;;;;;;0.20;0.20;;;12.40;99.90;;;;;;5048269;28;20191;-84
2022/06/08 04:07:08;;;;;;;0.10;0.10;;;12.40;99.90;;;;;;5063819;28;20783;-85
2022/06/08 04:09:33;;;;;;;0.20;0.20;;;12.40;99.90;;;;;;5050620;28;20726;-85
2022/06/08 04:11:59;;;;;;;0.20;0.20;;;12.40;99.90;;;;;;5056566;28;20494;-85
2022/06/08 04:14:25;;;;;;;0.30;0.30;;;12.40;99.90;;;;;;5054207;28;20712;-85
2022/06/08 04:16:51;;;;;;;0.20;0.20;;;12.50;99.90;;;;;;5053636;28;20183;-85
2022/06/08 04:19:18;;;;;;;0.10;0.10;;;12.50;99.90;;;;;;5040927;28;20789;-85
2022/06/08 04:21:45;;;;;;;0.10;0.10;;;12.50;99.90;;;;;;5051935;28;20535;-85
2022/06/08 04:24:13;;;;;;;0.10;0.10;;;12.60;99.90;;;;;;5053690;28;20520;-85
2022/06/08 04:26:38;;;;;;;0.20;0.20;;;12.60;99.90;;;;;;5049215;28;20449;-85
2022/06/08 04:29:05;;;;;;;0.20;0.20;;;12.60;99.90;;;;;;5054896;28;20449;-85
2022/06/08 04:31:33;;;;;;;0.10;0.10;;;12.60;99.90;;;;;;5046208;28;20224;-85
2022/06/08 04:33:59;;;;;;;0.20;0.20;;;12.60;99.90;;;;;;5049711;28;20859;-85
2022/06/08 04:36:24;;;;;;;0.10;0.10;;;12.60;99.90;;;;;;5053507;28;20503;-86
2022/06/08 04:38:50;;;;;;;0.20;0.20;;;12.50;99.90;;;;;;5049379;28;20449;-85
2022/06/08 04:41:16;;;;;;;0.10;0.10;;;12.50;99.90;;;;;;5053402;28;20179;-85
2022/06/08 04:43:42;;;;;;;0.20;0.20;;;12.60;99.90;;;;;;5055274;28;20240;-85
2022/06/08 04:46:08;;;;;;;0.20;0.20;;;12.50;99.90;;;;;;5051931;28;20468;-85
2022/06/08 04:48:33;;;;;;;0.20;0.20;;;12.50;99.90;;;;;;5047056;28;20194;-85
2022/06/08 04:50:59;;;;;;;0.30;0.30;;;12.40;99.90;;;;;;5040950;28;20889;-85
2022/06/08 04:53:24;;;;;;;0.10;0.10;;;12.40;99.90;;;;;;5045203;28;20232;-85
2022/06/08 04:55:50;;;;;;;0.20;0.20;;;12.40;99.90;;;;;;5062141;28;20199;-85
2022/06/08 04:58:17;;;;;;;0.10;0.10;;;12.40;99.90;;;;;;5057305;28;20183;-85
2022/06/08 05:00:42;;;;;;;0.10;0.10;;;12.30;99.90;;;;;;5046240;28;20281;-85
2022/06/08 05:03:08;;;;;;;0.20;0.20;;;12.40;99.90;;;;;;5049596;28;20528;-84
2022/06/08 05:05:37;;;;;;;0.20;0.20;;;12.40;99.90;;;;;;5050050;28;20188;-84
2022/06/08 05:08:04;;;;;;;0.10;0.10;;;12.40;99.90;;;;;;5061800;28;20190;-82
2022/06/08 05:10:32;;;;;;;0.10;0.10;;;12.40;99.90;;;;;;5059896;28;20450;-85
2022/06/08 05:12:59;;;;;;;0.10;0.10;;;12.40;99.90;;;;;;5052308;28;20485;-85
2022/06/08 05:15:30;;;;;;;0.20;0.20;;;12.50;99.90;;;;;;5050331;28;20437;-85
2022/06/08 05:17:57;;;;;;;0.30;0.30;;;12.50;99.90;;;;;;5044567;28;20483;-84
2022/06/08 05:20:24;;;;;;;0.20;0.20;;;12.60;99.90;;;;;;5045173;28;20468;-84
2022/06/08 05:22:50;;;;;;;0.23;0.23;;;12.60;99.90;;;;;;5056903;28;20850;-84
2022/06/08 05:25:21;;;;;;;0.20;0.20;;;12.60;99.90;;;;;;5047692;28;21555;-85
2022/06/08 05:27:47;;;;;;;0.20;0.20;;;12.70;99.90;;;;;;5045480;28;20528;-84
2022/06/08 05:30:12;;;;;;;0.40;0.40;;;12.70;99.90;;;;;;5052408;28;20535;-84
2022/06/08 05:32:39;;;;;;;0.20;0.20;;;12.70;99.90;;;;;;5040643;28;20483;-83
2022/06/08 05:35:06;;;;;;;0.30;0.30;;;12.60;99.90;;;;;;5045729;28;20959;-84
2022/06/08 05:37:31;;;;;;;0.10;0.10;;;12.70;99.90;;;;;;5045830;28;20528;-85
2022/06/08 05:39:57;;;;;;;0.30;0.30;;;12.60;99.90;;;;;;5044099;28;20567;-81
2022/06/08 05:42:23;;;;;;;0.13;0.13;;;12.60;99.90;;;;;;5045119;28;20255;-85
2022/06/08 05:44:49;;;;;;;0.20;0.20;;;12.60;99.90;;;;;;5052333;28;20330;-85
2022/06/08 05:47:16;;;;;;;0.20;0.20;;;12.70;99.90;;;;;;5043970;28;20175;-85
2022/06/08 05:49:43;;;;;;;0.20;0.20;;;12.80;99.90;;;;;;5046289;28;20441;-85
2022/06/08 05:52:09;;;;;;;0.27;0.27;;;12.90;99.90;;;;;;5064221;28;20547;-85
2022/06/08 05:54:35;;;;;;;0.10;0.10;;;12.80;99.90;;;;;;5047885;28;20453;-82
2022/06/08 05:57:01;;;;;;;0.20;0.20;;;12.80;99.90;;;;;;5060689;28;20885;-83
2022/06/08 05:59:30;;;;;;;0.20;0.20;;;13.00;99.90;;;;;;5056759;28;20535;-85
2022/06/08 06:01:56;;;;;;;0.20;0.20;;;13.00;99.90;;;;;;5049111;28;20465;-83
2022/06/08 06:04:21;;;;;;;0.10;0.10;;;13.00;99.90;;;;;;5056209;28;20475;-83
2022/06/08 06:06:47;;;;;;;0.20;0.20;;;13.10;99.90;;;;;;5053392;28;20248;-84
2022/06/08 06:09:15;;;;;;;0.10;0.10;;;13.20;99.90;;;;;;5044176;28;20230;-86
2022/06/08 06:11:41;;;;;;;0.20;0.20;;;13.20;99.90;;;;;;5041001;28;20501;-84
2022/06/08 06:14:08;;;;;;;0.20;0.20;;;13.50;99.90;;;;;;5042628;28;20572;-84
2022/06/08 06:16:34;;;;;;;0.10;0.10;;;13.60;99.90;;;;;;5049548;28;20209;-85
2022/06/08 06:18:59;;;;;;;0.10;0.10;;;13.70;99.90;;;;;;5046353;28;20510;-83
2022/06/08 06:21:25;;;;;;;0.10;0.10;;;13.80;99.90;;;;;;5046561;28;20591;-84
2022/06/08 06:23:55;;;;;;;0.10;0.10;;;13.70;99.90;;;;;;5037508;28;20205;-84
2022/06/08 06:26:22;;;;;;;0.10;0.10;;;13.80;99.90;;;;;;5040752;28;20437;-83
2022/06/08 06:28:47;;;;;;;0.10;0.10;;;13.90;99.90;;;;;;5044273;28;20443;-83
2022/06/08 06:31:44;;;;;;;0.10;0.10;;;14.00;99.90;;;;;;5035954;28;20427;-83
2022/06/08 06:34:13;;;;;;;0.10;0.10;;;14.00;99.90;;;;;;5034974;28;22644;-83
2022/06/08 06:36:39;;;;;;;0.10;0.10;;;13.80;99.90;;;;;;5052235;28;20749;-83
2022/06/08 06:39:04;;;;;;;0.17;0.17;;;14.00;99.90;;;;;;5049347;28;20448;-83
2022/06/08 06:41:30;;;;;;;0.10;0.10;;;14.10;99.90;;;;;;5044282;28;20207;-89
2022/06/08 06:43:56;;;;;;;0.20;0.20;;;14.10;99.90;;;;;;5059388;28;20319;-94
2022/06/08 06:46:21;;;;;;;0.17;0.17;;;14.20;99.90;;;;;;5059340;28;20190;-89
2022/06/08 06:48:47;;;;;;;0.30;0.30;;;14.20;99.90;;;;;;5051558;28;20654;-89
2022/06/08 06:51:12;;;;;;;0.20;0.20;;;14.20;99.90;;;;;;5047406;28;20184;-88
2022/06/08 06:53:38;;;;;;;0.10;0.10;;;14.30;99.90;;;;;;5048218;28;20216;-94
2022/06/08 06:56:04;;;;;;;0.10;0.10;;;14.20;99.90;;;;;;5046485;28;20739;-88
2022/06/08 06:58:29;;;;;;;0.20;0.20;;;14.10;99.90;;;;;;5061155;28;20210;-89
2022/06/08 07:00:55;;;;;;;0.10;0.10;;;14.10;99.90;;;;;;5051478;28;20175;-88
2022/06/08 07:03:21;;;;;;;0.10;0.10;;;14.00;99.90;;;;;;5048013;28;20693;-86
2022/06/08 07:05:47;;;;;;;0.13;0.13;;;14.20;99.90;;;;;;5045943;28;20179;-85
2022/06/08 07:08:13;;;;;;;0.10;0.10;;;14.30;99.90;;;;;;5043062;28;20483;-83
2022/06/08 07:10:39;;;;;;;0.10;0.10;;;14.50;99.90;;;;;;5042749;28;20472;-85
2022/06/08 07:13:05;;;;;;;0.10;0.10;;;14.60;99.90;;;;;;5049546;28;20218;-92
2022/06/08 07:15:31;;;;;;;0.10;0.10;;;14.60;99.90;;;;;;5050279;28;20252;-93
2022/06/08 07:17:56;;;;;;;0.10;0.10;;;14.70;99.90;;;;;;5055570;28;20432;-93
2022/06/08 07:20:23;;;;;;;0.10;0.10;;;14.60;99.90;;;;;;5041560;28;20673;-77
2022/06/08 07:22:50;;;;;;;0.10;0.10;;;14.60;99.90;;;;;;5037526;28;20586;-79
2022/06/08 07:25:17;;;;;;;0.10;0.10;;;14.70;99.90;;;;;;5047680;28;20436;-81
2022/06/08 07:27:44;;;;;;;0.10;0.10;;;14.70;99.90;;;;;;5051145;28;20559;-82
2022/06/08 07:30:10;;;;;;;0.10;0.10;;;14.80;99.90;;;;;;5046215;28;20448;-78
2022/06/08 07:32:36;;;;;;;0.10;0.10;;;14.80;99.90;;;;;;5052504;28;20469;-78
2022/06/08 07:35:03;;;;;;;0.10;0.10;;;15.10;99.90;;;;;;5050919;28;20976;-78
2022/06/08 07:37:29;;;;;;;0.40;0.40;;;15.30;99.90;;;;;;5052547;28;20194;-79
2022/06/08 07:39:54;;;;;;;0.10;0.10;;;15.20;99.90;;;;;;5052883;28;20421;-82
2022/06/08 07:42:21;;;;;;;0.20;0.20;;;15.20;99.90;;;;;;5057863;28;20581;-87
2022/06/08 07:44:47;;;;;;;0.10;0.10;;;14.90;99.90;;;;;;5054027;28;20206;-85
2022/06/08 07:47:14;;;;;;;0.10;0.10;;;14.80;99.90;;;;;;5050804;28;20441;-87
2022/06/08 07:49:41;;;;;;;0.10;0.10;;;14.90;99.90;;;;;;5040036;28;20967;-80
2022/06/08 07:52:13;;;;;;;0.10;0.10;;;15.00;99.90;;;;;;5051088;28;20436;-84
2022/06/08 07:54:40;;;;;;;0.10;0.10;;;15.10;99.90;;;;;;5047874;28;20447;-90
2022/06/08 07:57:08;;;;;;;0.10;0.10;;;15.20;99.90;;;;;;5047979;28;20441;-91
2022/06/08 07:59:36;;;;;;;0.10;0.10;;;15.60;99.90;;;;;;5050902;28;20556;-86
2022/06/08 08:02:03;;;;;;;0.10;0.10;;;15.80;99.90;;;;;;5052122;28;20747;-94
2022/06/08 08:04:29;;;;;;;0.10;0.10;;;15.70;99.90;;;;;;5054804;28;20995;-93
2022/06/08 08:06:55;;;;;;;0.10;0.10;;;15.90;99.90;;;;;;5053011;28;20582;-94
2022/06/08 08:09:22;;;;;;;0.10;0.10;;;16.10;99.90;;;;;;5054361;28;20226;-89
2022/06/08 08:11:53;;;;;;;0.10;0.10;;;16.20;99.90;;;;;;5045461;28;20437;-87
2022/06/08 08:14:22;;;;;;;0.10;0.10;;;16.30;99.90;;;;;;5052918;28;20447;-88
2022/06/08 08:16:48;;;;;;;0.10;0.10;;;16.30;99.90;;;;;;5054419;28;20809;-89
2022/06/08 08:19:20;;;;;;;0.10;0.10;;;16.40;99.90;;;;;;5056402;28;20445;-87
2022/06/08 08:21:47;;;;;;;0.20;0.20;;;16.40;99.90;;;;;;5048318;28;20493;-87
2022/06/08 08:24:12;;;;;;;0.10;0.10;;;16.40;99.90;;;;;;5051800;28;20433;-88
2022/06/08 08:26:38;;;;;;;0.10;0.10;;;16.40;99.90;;;;;;5053757;28;20459;-85
2022/06/08 08:29:04;;;;;;;0.10;0.10;;;16.40;99.90;;;;;;5060826;28;20178;-87
2022/06/08 08:31:30;;;;;;;0.10;0.10;;;16.50;99.90;;;;;;5052247;28;20913;-83
2022/06/08 08:33:56;;;;;;;0.10;0.10;;;16.60;99.90;;;;;;5050845;28;20472;-87
2022/06/08 08:36:21;;;;;;;0.10;0.10;;;16.30;99.90;;;;;;5050791;28;20194;-86
2022/06/08 08:38:47;;;;;;;0.10;0.10;;;16.10;99.90;;;;;;5050901;28;20190;-88
2022/06/08 08:44:31;;;;;;;0.10;0.10;;;16.10;99.90;;;;;;5051014;28;20228;-86
2022/06/08 08:47:14;;;;;;;0.10;0.10;;;16.20;99.90;;;;;;5057365;28;20436;-83
2022/06/08 08:49:48;;;;;;;0.10;0.10;;;16.30;99.90;;;;;;5049549;28;20905;-86
2022/06/08 08:52:18;;;;;;;0.10;0.10;;;16.60;99.90;;;;;;5056358;28;22544;-87
2022/06/08 08:54:57;;;;;;;0.10;0.10;;;16.90;99.90;;;;;;5049090;28;20494;-85
2022/06/08 08:57:56;;;;;;;0.00;0.00;;;17.20;99.90;;;;;;5049958;28;20796;-87
2022/06/08 09:00:39;;;;;;;0.10;0.10;;;17.50;99.90;;;;;;5049328;28;20437;-87
2022/06/08 09:03:20;;;;;;;0.07;0.07;;;17.60;99.90;;;;;;5050089;28;20456;-84
2022/06/08 09:05:48;;;;;;;0.10;0.10;;;17.20;99.90;;;;;;5050905;28;20439;-85
2022/06/08 09:08:16;;;;;;;0.10;0.10;;;16.80;99.90;;;;;;5066290;28;20473;-87
2022/06/08 09:10:42;;;;;;;0.00;0.00;;;16.80;99.90;;;;;;5055806;28;20453;-91
2022/06/08 09:13:17;;;;;;;0.00;0.00;;;16.90;99.90;;;;;;5063297;28;20479;-94
2022/06/08 09:15:44;;;;;;;0.10;0.10;;;17.20;99.90;;;;;;5061161;28;20452;-96
2022/06/08 09:18:39;;;;;;;0.10;0.10;;;17.70;99.90;;;;;;5054520;28;20529;-96
2022/06/08 09:21:31;;;;;;;0.10;0.10;;;18.40;99.90;;;;;;5062703;28;20444;-96
2022/06/08 09:24:01;;;;;;;0.10;0.10;;;19.00;99.90;;;;;;5057566;28;20533;-88
2022/06/08 09:26:28;;;;;;;0.10;0.10;;;19.00;99.90;;;;;;5063706;28;20440;-96
2022/06/08 09:29:08;;;;;;;0.10;0.10;;;19.30;99.90;;;;;;5052624;28;20476;-90
2022/06/08 09:31:36;;;;;;;0.10;0.10;;;19.50;99.90;;;;;;5055284;28;20456;-96
2022/06/08 09:34:27;;;;;;;0.00;0.00;;;19.00;99.90;;;;;;5060103;28;20480;-95
2022/06/08 09:37:13;;;;;;;0.00;0.00;;;19.10;99.90;;;;;;5068629;28;20953;-96
2022/06/08 09:39:41;;;;;;;0.10;0.10;;;19.40;99.90;;;;;;5050781;28;20530;-96
2022/06/08 09:42:40;;;;;;;0.00;0.00;;;19.70;99.90;;;;;;5061626;28;20452;-96
2022/06/08 09:45:22;;;;;;;0.00;0.00;;;20.10;99.90;;;;;;5060036;28;20449;-95
2022/06/08 09:51:25;;;;;;;0.10;0.10;;;19.50;99.90;;;;;;5061416;28;20535;-94
2022/06/08 09:54:15;;;;;;;0.00;0.00;;;19.40;99.90;;;;;;5063464;22;20497;-96
2022/06/08 09:57:27;;;;;;;0.10;0.10;;;19.10;99.90;;;;;;5049382;28;20448;-93
2022/06/08 10:00:17;;;;;;;0.10;0.10;;;18.60;99.90;;;;;;5052907;28;20528;-94
2022/06/08 10:03:01;;;;;;;0.10;0.10;;;19.40;99.90;;;;;;5045870;28;20486;-91
2022/06/08 10:05:54;;;;;;;0.10;0.10;;;19.80;99.90;;;;;;5055252;28;20441;-96
2022/06/08 10:08:32;;;;;;;0.10;0.10;;;20.20;99.90;;;;;;5049334;28;20449;-96
2022/06/08 10:11:34;;;;;;;0.10;0.00;;;20.30;99.90;;;;;;5035395;28;20444;-93
2022/06/08 10:14:20;;;;;;;0.10;0.00;;;20.60;99.90;;;;;;5046570;28;20579;-95
2022/06/08 10:16:53;;;;;;;0.10;0.00;;;20.30;99.90;;;;;;5041148;28;20441;-95
2022/06/08 10:19:29;;;;;;;0.10;0.00;;;20.30;99.90;;;;;;5057060;28;20928;-96
2022/06/08 10:21:56;;;;;;;0.10;0.00;;;20.00;99.90;;;;;;5060620;28;20437;-96
2022/06/08 10:24:29;;;;;;;0.10;0.10;;;20.20;99.90;;;;;;5042927;28;20921;-96
2022/06/08 10:27:06;;;;;;;0.10;0.10;;;20.60;99.90;;;;;;5054448;28;20449;-96
2022/06/08 10:29:40;;;;;;;0.10;0.00;;;20.90;99.90;;;;;;5052025;28;20486;-96
2022/06/08 10:32:22;;;;;;;0.10;0.10;;;20.90;99.90;;;;;;5057996;28;20451;-91
2022/06/08 10:34:54;;;;;;;0.10;0.00;;;21.40;99.90;;;;;;5054392;28;20457;-96
2022/06/08 10:37:30;;;;;;;0.10;0.00;;;21.60;99.90;;;;;;5032463;28;20444;-94
2022/06/08 10:39:57;;;;;;;0.10;0.00;;;21.90;99.90;;;;;;5067491;28;21180;-96
2022/06/08 10:42:40;;;;;;;0.10;0.00;;;21.80;99.90;;;;;;5052535;28;20536;-95
2022/06/08 10:45:21;;;;;;;0.10;0.00;;;21.60;99.90;;;;;;5062140;28;20810;-96
2022/06/08 10:48:18;;;;;;;0.10;0.00;;;20.20;99.90;;;;;;5057549;28;20531;-96
2022/06/08 10:50:49;;;;;;;0.00;0.00;;;20.40;99.90;;;;;;5058744;28;20480;-95
2022/06/08 10:56:23;;;;;;;0.10;0.00;;;21.10;99.90;;;;;;5053318;28;20452;-96
2022/06/08 10:58:55;;;;;;;0.10;0.00;;;20.50;99.90;;;;;;5032985;28;20436;-96
2022/06/08 11:01:34;;;;;;;0.10;0.00;;;20.10;99.90;;;;;;5052181;28;20441;-96
2022/06/08 11:04:02;;;;;;;0.10;0.00;;;19.70;99.90;;;;;;5053375;28;20584;-96
2022/06/08 11:06:57;;;;;;;0.00;0.00;;;19.70;99.90;;;;;;5030700;28;20445;-96
2022/06/08 11:09:34;;;;;;;0.00;0.00;;;19.60;99.90;;;;;;5019886;28;20441;-96
2022/06/08 11:12:16;;;;;;;0.00;0.00;;;19.30;99.90;;;;;;5052751;28;20598;-96
2022/06/08 11:14:44;;;;;;;0.00;0.00;;;19.50;99.90;;;;;;5038823;28;20513;-96
2022/06/08 11:17:17;;;;;;;0.00;0.00;;;19.60;99.90;;;;;;5035030;28;20429;-92
2022/06/08 11:19:45;;;;;;;0.00;0.00;;;19.80;99.90;;;;;;5053015;28;20455;-96
2022/06/08 11:22:25;;;;;;;0.00;0.00;;;20.00;99.90;;;;;;5051761;28;20413;-96
2022/06/08 11:24:56;;;;;;;0.00;0.00;;;20.30;99.90;;;;;;5058547;28;20521;-96
2022/06/08 11:27:33;;;;;;;0.00;0.00;;;20.50;99.90;;;;;;5059800;28;20528;-96
2022/06/08 11:30:14;;;;;;;0.00;0.00;;;20.30;99.90;;;;;;5042635;28;21017;-94
2022/06/08 11:33:02;;;;;;;0.00;0.00;;;20.30;99.90;;;;;;5058975;28;20488;-96
2022/06/08 11:35:59;;;;;;;0.00;0.00;;;21.00;99.90;;;;;;5052983;28;20436;-96
2022/06/08 11:38:49;;;;;;;0.00;0.00;;;21.40;99.90;;;;;;5046405;28;20433;-96
2022/06/08 11:41:26;;;;;;;0.00;0.00;;;21.50;99.90;;;;;;5054064;28;20520;-96
2022/06/08 11:43:52;;;;;;;0.00;0.00;;;22.40;99.90;;;;;;5033738;28;20448;-94
2022/06/08 11:46:30;;;;;;;0.00;0.00;;;23.00;99.90;;;;;;5047537;28;20446;-92
2022/06/08 11:48:56;;;;;;;0.00;0.00;;;23.50;99.90;;;;;;5053348;28;20289;-94
2022/06/08 11:51:37;;;;;;;0.00;0.00;;;24.00;99.90;;;;;;5049565;28;20956;-90
2022/06/08 11:54:17;;;;;;;0.00;0.00;;;24.20;99.90;;;;;;5040471;28;20238;-89
2022/06/08 11:57:00;;;;;;;0.00;0.00;;;24.20;99.90;;;;;;5051039;28;20449;-94
2022/06/08 11:59:26;;;;;;;0.00;0.00;;;24.60;99.90;;;;;;5035821;28;20716;-96
2022/06/08 12:01:55;;;;;;;0.00;0.00;;;24.50;99.90;;;;;;5036838;28;20846;-96
2022/06/08 12:04:27;;;;;;;0.00;0.00;;;23.60;99.90;;;;;;5037365;28;20202;-87
2022/06/08 12:06:56;;;;;;;0.00;0.00;;;22.80;99.90;;;;;;5048683;28;20441;-94
2022/06/08 12:09:27;;;;;;;0.00;0.00;;;21.90;99.90;;;;;;5059329;28;20445;-96
2022/06/08 12:11:57;;;;;;;0.00;0.00;;;21.00;99.90;;;;;;5035488;28;21043;-93
2022/06/08 12:14:37;;;;;;;0.00;0.00;;;20.90;99.90;;;;;;5054218;28;20493;-96
2022/06/08 12:17:08;;;;;;;0.00;0.00;;;20.50;99.90;;;;;;5052504;23;20484;-96
2022/06/08 12:19:46;;;;;;;0.00;0.00;;;20.20;99.90;;;;;;5053611;28;20453;-94
2022/06/08 12:22:29;;;;;;;0.00;0.00;;;20.00;99.90;;;;;;5053895;28;20944;-96
2022/06/08 12:25:25;;;;;;;0.00;0.00;;;19.80;99.90;;;;;;5042571;28;20437;-96
2022/06/08 12:27:59;;;;;;;0.00;0.00;;;19.90;99.90;;;;;;5058030;28;20494;-96
2022/06/08 12:30:51;;;;;;;0.00;0.00;;;20.60;99.90;;;;;;5062697;28;20455;-96
2022/06/08 12:33:17;;;;;;;0.00;0.00;;;20.90;99.90;;;;;;5061111;28;20552;-96
2022/06/08 12:36:07;;;;;;;0.00;0.00;;;21.20;99.90;;;;;;5059472;23;20489;-96
2022/06/08 12:38:35;;;;;;;0.00;0.00;;;21.80;99.90;;;;;;5069625;28;20249;-92
2022/06/08 12:41:16;;;;;;;0.00;0.00;;;21.90;99.90;;;;;;5042226;28;20442;-96
2022/06/08 12:43:50;;;;;;;0.00;0.00;;;22.40;99.90;;;;;;5058819;28;20969;-96
2022/06/08 12:46:21;;;;;;;0.00;0.00;;;22.40;99.90;;;;;;5064982;28;20452;-96
2022/06/08 12:49:00;;;;;;;0.00;0.00;;;22.10;99.90;;;;;;5042439;28;20483;-96
2022/06/08 12:51:29;;;;;;;0.00;0.00;;;21.40;99.90;;;;;;5056406;28;20504;-96
2022/06/08 12:53:59;;;;;;;0.00;0.00;;;21.10;99.90;;;;;;5039142;28;20480;-96
2022/06/08 12:56:25;;;;;;;0.00;0.00;;;20.70;99.90;;;;;;5066107;28;20437;-95
2022/06/08 12:58:52;;;;;;;0.00;0.00;;;20.50;99.90;;;;;;5056278;28;20456;-96
2022/06/08 13:01:20;;;;;;;0.00;0.00;;;20.60;99.90;;;;;;5081573;22;21178;-96
2022/06/08 13:03:47;;;;;;;0.00;0.00;;;20.70;99.90;;;;;;5051414;28;20485;-95
2022/06/08 13:06:12;;;;;;;0.00;0.00;;;20.70;99.90;;;;;;5054262;28;20482;-95
2022/06/08 13:08:39;;;;;;;0.00;0.00;;;21.00;99.90;;;;;;5056337;28;20443;-96
2022/06/08 13:11:12;;;;;;;0.00;0.00;;;21.20;99.90;;;;;;5057137;28;20235;-96
2022/06/08 13:13:39;;;;;;;0.00;0.00;;;21.10;99.90;;;;;;5054454;28;20470;-96
2022/06/08 13:16:13;;;;;;;0.00;0.00;;;21.10;99.90;;;;;;5047595;28;20477;-95
2022/06/08 13:18:39;;;;;;;0.10;0.10;;;20.90;99.90;;;;;;5046198;28;20833;-91
2022/06/08 13:21:07;;;;;;;0.00;0.00;;;20.70;99.90;;;;;;5048136;28;20432;-94
2022/06/08 13:23:34;;;;;;;0.00;0.00;;;20.80;99.90;;;;;;5051483;28;20194;-96
2022/06/08 13:26:00;;;;;;;0.00;0.00;;;20.90;99.90;;;;;;5047257;28;20441;-95